CCX6 weather

Comox Seaplane Base
Comox, British Columbia, Canada

Public forecast

Using degrees Celsius for public forecast. Weather courtesy of forecast.io.

METAR (pilot weather report)

Closest report is Comox Airport, 3.0 nm (5.6 km) NE. Retrieved 2019/07/18 23:41 UTC (0 seconds ago):

CYQQ 182341Z 34010KT 15SM -SHRA FEW046CB OVC052 14/12 A3004 RMK CB2SC6 EMBD CB E MOVG E SLP173

TAF (pilot weather forecast)

Closest forecast is Comox Airport, 3.0 nm (5.6 km) NE. Retrieved 2019/07/18 18:43 UTC (4 hours ago):

TAF CYQQ 181740Z 1818/1918 31005KT P6SM FEW030 SCT050 BKN100 BKN220 FM182100 VRB03KT P6SM SCT060 TEMPO 1821/1823 P6SM -SHRA BKN060 FM182300 35010KT P6SM FEW015 SCT040 BKN060 TEMPO 1823/1903 P6SM -SHRA SCT015 BKN040 OVC060 FM190300 VRB03KT P6SM FEW015 BKN050 RMK NXT FCST BY 190000Z